Nearby METAR Reports

 

KHOB - Hobbs, New Mexico, USA
Distance from station: S 40mi, 65km
Updated: Sat, 15-May-2021 1:55am MDT
Clear
Clear
 Wind from S
Wind: S 16 mph , 26 km/h, Gust: 22 mph , 35 km/h
Temperature: 64°F , 18°C
Dew Point: 57°F , 14°C
Humidity: 78%
Barometer: 30.01 inHg , 1016.3 hPa
Clouds: Clear
Visibility: 10 miles , 16 km
2021/05/15 07:55 KHOB 150755Z AUTO 19014G19KT 10SM CLR 18/14 A3001 RMK AO2
KGNC - Seminole, Texas, USA
Distance from station: SE 55mi, 89km
Updated: Sat, 15-May-2021 1:55am MDT
Clear
Clear
 Wind from S
Wind: S 7 mph , 11 km/h, Gust: 16 mph , 26 km/h
Temperature: 66°F , 19°C
Dew Point: 57°F , 14°C
Humidity: 73%
Barometer: 30.05 inHg , 1017.6 hPa
Clouds: Clear
Visibility: 10 miles , 16 km
2021/05/15 07:55 KGNC 150755Z AUTO 18006G14KT 10SM CLR 19/14 A3005 RMK AO2 T01930141
 
KROW - Roswell, New Mexico, USA
Distance from station: W 67mi, 108km
Updated: Sat, 15-May-2021 1:51am MDT
Clear
Clear
 Wind from SSW
Wind: SSW 10 mph , 17 km/h
Temperature: 64°F , 18°C
Dew Point: 54°F , 12°C
Humidity: 68%
Barometer: 30.02 inHg , 1016.6 hPa
Clouds: Clear
Visibility: 10 miles , 16 km
2021/05/15 07:51 KROW 150751Z AUTO 20009KT 10SM CLR 18/12 A3002 RMK AO2 SLP103 T01830122
KATS - Artesia, New Mexico, USA
Distance from station: WSW 71mi, 114km
Updated: Sat, 15-May-2021 1:55am MDT
Clear
Clear
 Wind from SSW
Wind: SSW 13 mph , 20 km/h
Temperature: 64°F , 18°C
Dew Point: 61°F , 16°C
Humidity: 88%
Barometer: 30.04 inHg , 1017.3 hPa
Clouds: Clear
Visibility: 10 miles , 16 km
2021/05/15 07:55 KATS 150755Z AUTO 20011KT 10SM CLR 18/16 A3004 RMK AO2
 
KCVS - Cannon AFB,Clovis, New Mexico, USA
Distance from station: 0 78mi, 125km
Updated: Sat, 15-May-2021 1:58am MDT
Clear
Clear
 Wind from S
Wind: S 6 mph , 9 km/h
Temperature: 61°F , 16°C
Dew Point: 52°F , 11°C
Humidity: 72%
Barometer: 30.04 inHg , 1017.3 hPa
Clouds: Clear
Visibility: 10 miles , 16 km
2021/05/15 07:58 KCVS 150758Z 19005KT 10SM CLR 16/11 A3004 RMK AO2A SLP115 T01550105 $
KE11 - Andrews, Texas, USA
Distance from station: SE 78mi, 126km
Updated: Sat, 15-May-2021 1:55am MDT
Clear
Clear
 Wind from SSE
Wind: SSE 17 mph , 28 km/h, Gust: 22 mph , 35 km/h
Temperature: 66°F , 19°C
Dew Point: 57°F , 14°C
Humidity: 73%
Barometer: 30.01 inHg , 1016.3 hPa
Clouds: Clear
Visibility: 10 miles , 16 km
2021/05/15 07:55 KE11 150755Z AUTO 16015G19KT 10SM CLR 19/14 A3001 RMK AO2 T01930137
 
KCNM - Carlsbad, New Mexico, USA
Distance from station: SW 82mi, 132km
Updated: Sat, 15-May-2021 1:53am MDT
Clear
Clear
 Wind from SSE
Wind: SSE 12 mph , 19 km/h
Temperature: 63°F , 17°C
Dew Point: 59°F , 15°C
Humidity: 88%
Barometer: 30.02 inHg , 1016.6 hPa
Clouds: Clear
Visibility: 10 miles , 16 km
2021/05/15 07:53 KCNM 150753Z AUTO 16010KT 10SM CLR 17/15 A3002 RMK AO2 SLP113 T01720150
KCVN - Clovis Muni, New Mexico, USA
Distance from station: N 83mi, 133km
Updated: Sat, 15-May-2021 1:56am MDT
Clear
Clear
 Wind from SSE
Wind: SSE 12 mph , 19 km/h
Temperature: 57°F , 14°C
Dew Point: 54°F , 12°C
Humidity: 88%
Barometer: 30.05 inHg , 1017.6 hPa
Clouds: Clear
Visibility: 10 miles , 16 km
2021/05/15 07:56 KCVN 150756Z AUTO 15010KT 10SM CLR 14/12 A3005 RMK AO2 SLP135 T01440122
 
KLBB - Lubbock, Texas, USA
Distance from station: ENE 92mi, 149km
Updated: Sat, 15-May-2021 1:53am MDT
Mostly cloudy
Mostly cloudy
 Wind from S
Wind: S 18 mph , 30 km/h
Temperature: 66°F , 19°C
Dew Point: 55°F , 13°C
Humidity: 68%
Barometer: 30.04 inHg , 1017.3 hPa
Clouds: Mostly cloudy
Visibility: 10 miles , 16 km
Cloud details: Mostly cloudy 3600 ft
2021/05/15 07:53 KLBB 150753Z 17016KT 10SM BKN036 19/13 A3004 RMK AO2 SLP124 BINOVC T01890128
KINK - Wink, Texas, USA
Distance from station: S 101mi, 163km
Updated: Fri, 14-May-2021 11:23pm MDT
NOT Current
Light thunderstorm, Rain, Overcast
Light thunderstorm, Rain, Overcast
 Wind from SSE
Wind: SSE 8 mph , 13 km/h
Temperature: 72°F , 22°C
Dew Point: 57°F , 14°C
Humidity: 61%
Barometer: 30.07 inHg , 1018.3 hPa
Summary: Light thunderstorm, Rain
Clouds: Overcast
Visibility: 10 miles , 16 km
Cloud details: Mostly cloudy 3300 ft
Overcast 9500 ft
2021/05/15 05:23 KINK 150523Z AUTO 15007KT 130V190 10SM -TSRA BKN033 OVC095 22/14 A3007 RMK AO2 LTG DSNT W AND NW RAB22 TSB17 P0000 T02170144
 
KMAF - Midland, Texas, USA
Distance from station: SE 111mi, 179km
Updated: Sat, 15-May-2021 2:02am MDT
Mostly cloudy
Mostly cloudy
 Wind from S
Wind: S 7 mph , 11 km/h
Temperature: 66°F , 19°C
Dew Point: 57°F , 14°C
Humidity: 73%
Barometer: 30.04 inHg , 1017.3 hPa
Clouds: Mostly cloudy
Visibility: 10 miles , 16 km
Cloud details: Mostly cloudy 2900 ft
2021/05/15 08:02 KMAF 150802Z AUTO 18006KT 10SM BKN029 19/14 A3004 RMK AO2 PRESFR T01940144
KSRR - Sierra B/Ruidoso, New Mexico, USA
Distance from station: W 127mi, 204km
Updated: Sat, 15-May-2021 1:55am MDT
Clear
Clear
 Wind from calm
Wind: Calm
Temperature: 50°F , 10°C
Dew Point: 43°F , 6°C
Humidity: 76%
Barometer: 30.19 inHg , 1022.4 hPa
Clouds: Clear
Visibility: 10 miles , 16 km
2021/05/15 07:55 KSRR 150755Z AUTO 00000KT 10SM CLR 10/06 A3019 RMK AO2 LTG DSNT W AND NW
 
KGDP - Guadalupe Pass, Texas, USA
Distance from station: SW 130mi, 209km
Updated: Sat, 15-May-2021 1:57am MDT
Light rain, Overcast
Light rain, Overcast
 Wind from NNE
Wind: NNE 7 mph , 11 km/h
Temperature: 57°F , 14°C
Dew Point: 52°F , 11°C
Humidity: 82%
Barometer: 30.18 inHg , 1022 hPa
Summary: Light rain
Clouds: Overcast
Visibility: 3 miles , 5 km
Cloud details: Few Clouds 3700 ft
Mostly cloudy 4700 ft
Overcast 6500 ft
2021/05/15 07:57 KGDP 150757Z AUTO 02006KT 3SM -RA FEW037 BKN047 OVC065 14/11 A3018 RMK AO2 P0004 T01440106 $